Ride Results

Windeyer Twilight (12-11-2016)
Ride distance: 80.0 km

Outcomes - Windeyer Twilight (12-11-2016)
Division No. of Entries Retired / DNE Completed Withdrawn Ineligible V/O Percentage Completed
HW 6 - 5 1 - - 83.33%
MW 11 - 8 - - 3 72.73%
LW 7 - 7 - - - 100.00%
JN 4 - 4 - - - 100.00%
Totals 28 - 24 1 - 3 85.71%
Results - Windeyer Twilight (12-11-2016)
No. Rider Horse Place Time Leg Speeds Total
Km/Hr
H/R bpm
Heavyweight
10 Sue Warren Razorback Flash 1 (BC) 6:04:00 18.1, 10.3 13.19 40, 53, 52 (Avg:52)
8 Stuart Lymbery Garonne Park Walker 2 6:31:00 14.0, 10.9 12.28 36, 44, 58 (Avg:51)
3 Shaun Jones Rowallan Magic Simbol 3 6:48:00 12.3, 11.2 11.76 32, 40, 52 (Avg:46)
7 Robert Catlin Bendora Rafiki 4 7:51:00 10.5, 9.8 10.19 42, 48, 46 (Avg:47)
1 John Howe Ashbend Perazzi 4 7:51:00 10.5, 9.8 10.19 41, 46, 42 (Avg:44)
14 Alan Mackinder Jezabelle Sweet Dreams Withdrawn L1 0:00:00 - - 37, 45 (Avg:45)
Middleweight
12 Karen Anderson Malleegrove Samsara 1 4:28:00 19.5, 16.5 17.91 38, 43, 48 (Avg:45)
19 Shelley Jones Shellal Blue 2 (BC) 4:41:00 18.6, 15.7 17.08 37, 34, 48 (Avg:41)
18 Brad Dillon Banfield Reign 3 5:12:00 16.9, 14.1 15.38 48, 43, 52 (Avg:47)
5 Gavin Peacock Eclipse 4 6:04:00 14.6, 11.9 13.19 32, 44, 46 (Avg:45)
16 Peter Bice Georgie Girl 5 6:27:00 13.5, 11.4 12.40 40, 40, 44 (Avg:42)
21 Fiona Meller Maxwell Eve 6 6:31:00 14.0, 10.9 12.28 36, 39, 42 (Avg:40)
26 Victoria Bonham Bridle Track Bogart 7 6:48:00 12.2, 11.3 11.76 36, 38, 48 (Avg:43)
13 Jennifer Gilbertson All Aglow At Webbscreek 8 7:25:00 12.8, 9.3 10.79 41, 50, 51 (Avg:50)
6 Clare Feary Copperkahn Tiara Lame L2 0:00:00 18.6, 15.7 - 32, 39, 48 (Avg:43)
9 Jennifer Caslick Wanstead Love Story Lame L1 0:00:00 31.5 - 48, 45 (Avg:45)
27 Chris Noonan Yaraandoo Myee-Jarrah Heart Rate L1 0:00:00 12.2 - 42, 61 (Avg:61)
Lightweight
20 Clare Fleming Warrawee Gay Paree 1 (BC) 4:28:00 19.5, 16.5 17.91 40, 47, 44 (Avg:45)
25 Indigo Noonan Bridle Track Sunlight 2 6:04:00 13.2, 13.1 13.19 33, 40, 44 (Avg:42)
15 Victoria Bice The Byzantine Diamonds 3 6:27:00 13.5, 11.4 12.40 41, 38, 44 (Avg:41)
11 Sue Todd Shakari Bear 3 6:27:00 13.5, 11.4 12.40 40, 42, 48 (Avg:45)
23 Cheny Collins Henley Farm Waffar 5 6:49:00 13.3, 10.4 11.74 34, 45, 48 (Avg:46)
22 Mary Hollingsworth Cameo Ambrozia 6 6:49:20 13.3, 10.4 11.73 39, 38, 44 (Avg:41)
4 Elizabeth Moir Kenya s Gold 7 6:49:40 12.3, 11.1 11.72 26, 38, 48 (Avg:43)
Junior
17 Levi Robinson Karumba Beamish 1 (BC) 4:55:00 17.0, 15.5 16.27 40, 46, 49 (Avg:47)
28 Brooke Marshall Secret Weapon 2 6:04:00 13.3, 13.0 13.19 46, 45, 52 (Avg:48)
24 Tahnaya Mercieca Malleegrove Qaarma 3 6:04:30 13.2, 13.0 13.17 38, 42, 59 (Avg:50)
2 Gabrielle Worth Douglas 4 6:36:00 13.1, 11.2 12.12 32, 45, 51 (Avg:48)